Time;durP1;ratioP1;P1;durP2;ratioP2;P2;SDS_P1;SDS_P2;PMS_P1;PMS_P2;Temp;Humidity;BMP_temperature;BMP_pressure;BME280_temperature;BME280_humidity;BME280_pressure;Samples;Min_cycle;Max_cycle;Signal;HPM_P1;HPM_P2
2022/11/04 00:01:19;;;;;;;;;;;;;;;10.97;100.00;98617.75;4977443;28;20369;-86
2022/11/04 00:03:44;;;;;;;;;;;;;;;11.41;100.00;98629.16;4994024;28;20008;-89
2022/11/04 00:06:10;;;;;;;;;;;;;;;11.20;100.00;98628.72;4991510;28;19921;-88
2022/11/04 04:31:56;;;;;;;;;;;;;;;11.80;100.00;98522.16;5228632;23;20497;-82
2022/11/04 04:34:26;;;;;;;;;;;;;;;11.81;100.00;98520.38;4994391;28;19943;-82
2022/11/04 04:36:51;;;;;;;;;;;;;;;11.81;100.00;98520.38;4994099;28;19918;-82
2022/11/04 04:45:01;;;;;;;;;;;;;;;11.80;100.00;98523.97;4992652;28;20280;-83
2022/11/04 04:47:29;;;;;;;;;;;;;;;11.82;100.00;98507.00;4993588;28;19958;-83
2022/11/04 04:49:56;;;;;;;;;;;;;;;11.81;100.00;98509.75;4993839;28;19918;-84
2022/11/04 04:52:22;;;;;;;;;;;;;;;11.83;100.00;98502.53;4994144;28;20457;-86
2022/11/04 04:54:47;;;;;;;;;;;;;;;11.86;100.00;98504.16;4993870;28;19953;-85
2022/11/04 04:57:16;;;;;;;;;;;;;;;11.85;100.00;98494.47;4993926;28;20555;-85
2022/11/04 04:59:41;;;;;;;;;;;;;;;11.87;100.00;98493.44;4976519;28;19918;-83
2022/11/04 05:02:06;;;;;;;;;;;;;;;11.88;100.00;98488.97;4975186;28;19918;-85
2022/11/04 05:04:32;;;;;;;;;;;;;;;11.88;100.00;98478.34;4993924;28;20282;-85
2022/11/04 05:06:57;;;;;;;;;;;;;;;11.87;100.00;98477.50;4992455;28;19964;-85
2022/11/04 05:09:22;;;;;;;;;;;;;;;11.88;100.00;98481.00;4993887;28;19922;-85
2022/11/04 05:11:47;;;;;;;;;;;;;;;11.88;100.00;98468.56;4993784;28;20353;-85
2022/11/04 05:14:13;;;;;;;;;;;;;;;11.90;100.00;98472.00;4992705;28;19928;-84
2022/11/04 05:16:38;;;;;;;;;;;;;;;11.89;100.00;98464.13;4992711;28;19925;-84
2022/11/04 05:19:03;;;;;;;;;;;;;;;11.89;100.00;98470.28;4993606;28;19973;-85
2022/11/04 05:21:28;;;;;;;;;;;;;;;11.91;100.00;98464.88;4993719;28;19918;-84
2022/11/04 05:23:54;;;;;;;;;;;;;;;11.90;100.00;98466.69;4993826;28;19918;-84
2022/11/04 05:26:19;;;;;;;;;;;;;;;11.92;100.00;98461.28;4993709;28;19925;-84
2022/11/04 05:28:44;;;;;;;;;;;;;;;11.92;100.00;98470.09;4993666;28;20016;-84
2022/11/04 05:31:10;;;;;;;;;;;;;;;11.93;100.00;98465.63;4991017;28;20068;-84
2022/11/04 05:33:35;;;;;;;;;;;;;;;11.93;100.00;98465.63;4993346;28;20377;-85
2022/11/04 05:36:04;;;;;;;;;;;;;;;11.93;100.00;98473.59;4993558;28;19925;-85
2022/11/04 05:38:32;;;;;;;;;;;;;;;11.95;100.00;98490.25;4993582;28;20009;-87
2022/11/04 05:40:57;;;;;;;;;;;;;;;11.94;100.00;98499.19;4992320;28;19961;-85
2022/11/04 08:31:09;;;;;;;;;;;;;;;12.29;100.00;98602.97;4982392;23;19970;-84
2022/11/04 08:33:35;;;;;;;;;;;;;;;12.04;100.00;98606.44;4989076;28;20016;-85
2022/11/04 08:36:05;;;;;;;;;;;;;;;10.19;100.00;98612.81;4992112;28;20416;-90
2022/11/04 08:38:30;;;;;;;;;;;;;;;9.38;100.00;98611.31;4991418;28;20017;-86
2022/11/04 08:40:57;;;;;;;;;;;;;;;8.91;100.00;98605.06;4994075;28;19933;-85
2022/11/04 08:43:22;;;;;;;;;;;;;;;8.66;100.00;98605.59;4988876;28;19922;-90
2022/11/04 08:45:47;;;;;;;;;;;;;;;8.51;100.00;98607.22;4992308;28;19969;-85
2022/11/04 08:48:13;;;;;;;;;;;;;;;8.39;100.00;98605.19;4992843;28;20448;-89
2022/11/04 08:50:38;;;;;;;;;;;;;;;8.10;100.00;98599.66;4996961;28;19918;-91
2022/11/04 08:53:04;;;;;;;;;;;;;;;7.98;100.00;98600.31;4991721;28;19926;-90
2022/11/04 08:55:29;;;;;;;;;;;;;;;7.95;100.00;98606.59;4997062;28;19928;-89
2022/11/04 08:57:55;;;;;;;;;;;;;;;7.87;100.00;98600.00;4996383;28;19922;-89
2022/11/04 09:00:20;;;;;;;;;;;;;;;7.73;100.00;98591.00;4991451;28;19928;-86
2022/11/04 09:02:45;;;;;;;;;;;;;;;7.61;100.00;98597.75;4986984;28;19933;-89
2022/11/04 09:05:11;;;;;;;;;;;;;;;7.52;100.00;98600.81;5005849;28;19926;-89
2022/11/04 09:07:36;;;;;;;;;;;;;;;7.51;100.00;98596.47;4980744;28;19958;-86
2022/11/04 09:10:02;;;;;;;;;;;;;;;7.40;100.00;98602.28;4983624;28;20352;-88
2022/11/04 09:12:27;;;;;;;;;;;;;;;7.37;100.00;98599.81;5003149;28;19926;-91
2022/11/04 09:14:53;;;;;;;;;;;;;;;7.17;100.00;98607.81;4982314;28;19918;-87
2022/11/04 09:17:18;;;;;;;;;;;;;;;7.11;100.00;98605.47;4987370;28;20439;-89
2022/11/04 09:19:43;;;;;;;;;;;;;;;7.00;100.00;98606.81;4991982;28;19973;-88
2022/11/04 09:22:08;;;;;;;;;;;;;;;7.06;100.00;98606.53;4992737;28;19922;-88
2022/11/04 09:24:34;;;;;;;;;;;;;;;6.96;100.00;98607.91;4992644;28;19925;-91
2022/11/04 09:26:59;;;;;;;;;;;;;;;6.82;100.00;98619.06;5009143;28;19925;-87
2022/11/04 09:29:25;;;;;;;;;;;;;;;6.84;100.00;98609.31;4993631;28;19925;-91
2022/11/04 09:31:50;;;;;;;;;;;;;;;6.82;100.00;98608.53;4995857;28;19922;-93
2022/11/04 09:34:16;;;;;;;;;;;;;;;6.83;100.00;98609.38;4990614;28;19925;-87
2022/11/04 09:36:43;;;;;;;;;;;;;;;6.81;100.00;98606.84;4994661;28;19960;-87
2022/11/04 09:39:10;;;;;;;;;;;;;;;6.62;100.00;98606.81;4991987;28;20036;-93
2022/11/04 09:41:39;;;;;;;;;;;;;;;6.53;100.00;98610.72;4977017;28;19928;-90
2022/11/04 09:44:19;;;;;;;;;;;;;;;6.58;100.00;98610.50;4977133;28;19918;-90
2022/11/04 09:46:48;;;;;;;;;;;;;;;6.45;100.00;98609.38;4978512;28;20413;-87
2022/11/04 09:49:15;;;;;;;;;;;;;;;6.48;100.00;98610.06;4991947;28;20024;-92
2022/11/04 09:51:41;;;;;;;;;;;;;;;6.34;100.00;98599.31;4984017;28;19922;-89
2022/11/04 09:54:14;;;;;;;;;;;;;;;6.14;100.00;98608.06;4968772;28;19962;-89
2022/11/04 09:56:42;;;;;;;;;;;;;;;6.18;100.00;98607.03;4972439;28;19925;-89
2022/11/04 09:59:09;;;;;;;;;;;;;;;6.16;100.00;98608.88;4967943;28;19962;-90
2022/11/04 10:01:43;;;;;;;;;;;;;;;6.09;100.00;98605.63;4967876;28;20432;-90
2022/11/04 10:04:29;;;;;;;;;;;;;;;6.11;100.00;98605.56;4974075;28;19922;-91
2022/11/04 10:07:10;;;;;;;;;;;;;;;5.92;100.00;98608.97;4975837;28;20018;-91
2022/11/04 10:09:41;;;;;;;;;;;;;;;6.03;100.00;98603.28;4968273;28;20025;-89
2022/11/04 10:12:06;;;;;;;;;;;;;;;5.96;100.00;98602.69;4974309;28;19922;-90
2022/11/04 10:14:47;;;;;;;;;;;;;;;6.02;100.00;98606.84;4972488;28;19937;-91
2022/11/04 10:17:42;;;;;;;;;;;;;;;5.87;100.00;98604.81;4967988;28;19922;-90
2022/11/04 10:20:22;;;;;;;;;;;;;;;5.93;100.00;98615.91;4956279;28;19934;-91
2022/11/04 10:22:59;;;;;;;;;;;;;;;5.82;100.00;98612.88;4973118;28;20040;-92
2022/11/04 10:25:29;;;;;;;;;;;;;;;5.70;100.00;98610.81;4979945;28;19922;-87
2022/11/04 10:27:55;;;;;;;;;;;;;;;5.67;100.00;98617.03;4969411;28;19926;-89
2022/11/04 10:30:22;;;;;;;;;;;;;;;5.81;100.00;98619.94;4969818;28;20392;-87
2022/11/04 10:32:57;;;;;;;;;;;;;;;5.80;100.00;98618.22;4975220;28;19921;-89
2022/11/04 10:35:28;;;;;;;;;;;;;;;5.74;100.00;98617.63;4971924;28;20002;-92
2022/11/04 10:37:58;;;;;;;;;;;;;;;5.70;100.00;98613.44;4967991;28;20365;-91
2022/11/04 10:40:28;;;;;;;;;;;;;;;5.82;100.00;98615.53;4976680;28;19969;-91
2022/11/04 10:42:55;;;;;;;;;;;;;;;5.73;100.00;98614.16;4970334;28;19922;-90
2022/11/04 10:45:24;;;;;;;;;;;;;;;5.67;100.00;98608.31;4983301;28;19918;-88
2022/11/04 10:48:04;;;;;;;;;;;;;;;5.64;100.00;98612.75;4960699;28;19922;-92
2022/11/04 10:50:50;;;;;;;;;;;;;;;5.69;100.00;98614.34;4973135;28;19929;-87
2022/11/04 10:53:21;;;;;;;;;;;;;;;5.63;100.00;98611.06;4973527;28;19929;-89
2022/11/04 10:55:53;;;;;;;;;;;;;;;5.65;100.00;98618.88;4962571;28;19929;-90
2022/11/04 10:58:38;;;;;;;;;;;;;;;5.67;100.00;98622.28;4955378;28;19919;-88
2022/11/04 11:01:27;;;;;;;;;;;;;;;5.68;100.00;98620.50;4957367;29;19922;-88
2022/11/04 11:03:53;;;;;;;;;;;;;;;5.62;100.00;98624.25;4964884;28;19929;-90
2022/11/04 11:06:24;;;;;;;;;;;;;;;5.45;100.00;98612.63;4969803;28;19929;-89
2022/11/04 11:08:50;;;;;;;;;;;;;;;5.51;100.00;98611.53;4964850;28;19923;-88
2022/11/04 11:11:33;;;;;;;;;;;;;;;5.42;100.00;98618.00;4957250;28;19926;-91
2022/11/04 11:13:58;;;;;;;;;;;;;;;5.48;100.00;98616.09;4955846;28;20333;-90
2022/11/04 11:16:26;;;;;;;;;;;;;;;5.48;100.00;98622.19;4955950;28;19925;-89
2022/11/04 11:19:10;;;;;;;;;;;;;;;5.42;100.00;98633.78;4973240;28;19922;-88
2022/11/04 11:21:47;;;;;;;;;;;;;;;5.37;100.00;98630.47;4969958;28;20029;-90
2022/11/04 11:24:18;;;;;;;;;;;;;;;5.40;100.00;98635.63;4960419;28;20401;-90
2022/11/04 11:26:48;;;;;;;;;;;;;;;5.44;100.00;98637.22;4976098;28;19922;-89
2022/11/04 11:29:24;;;;;;;;;;;;;;;5.34;100.00;98635.00;4974815;28;19922;-90
2022/11/04 11:31:51;;;;;;;;;;;;;;;5.33;100.00;98638.53;4935507;29;20005;-88
2022/11/04 11:34:28;;;;;;;;;;;;;;;5.31;100.00;98635.97;4920326;29;20363;-90
2022/11/04 11:36:55;;;;;;;;;;;;;;;5.31;100.00;98635.97;4919907;29;19922;-89
2022/11/04 11:39:22;;;;;;;;;;;;;;;5.31;100.00;98638.59;4936088;29;19929;-90
2022/11/04 11:41:59;;;;;;;;;;;;;;;5.26;100.00;98637.94;4934303;29;19971;-90
2022/11/04 11:44:30;;;;;;;;;;;;;;;5.24;100.00;98645.88;4936398;29;19919;-89
2022/11/04 11:46:56;;;;;;;;;;;;;;;5.16;100.00;98645.31;4937223;29;19929;-88
2022/11/04 11:49:31;;;;;;;;;;;;;;;5.17;100.00;98644.44;4936541;29;19919;-89
2022/11/04 11:52:16;;;;;;;;;;;;;;;5.15;100.00;98643.59;4933412;28;19923;-89
2022/11/04 11:54:43;;;;;;;;;;;;;;;5.11;100.00;98644.66;4935036;29;19919;-89
2022/11/04 11:57:17;;;;;;;;;;;;;;;5.07;100.00;98646.56;4918081;29;19920;-89
2022/11/04 12:00:05;;;;;;;;;;;;;;;5.39;100.00;98643.56;4916009;29;19966;-87
2022/11/04 12:02:45;;;;;;;;;;;;;;;5.71;100.00;98647.53;4930831;29;20315;-90
2022/11/04 12:05:11;;;;;;;;;;;;;;;5.95;100.00;98650.91;4936119;29;20011;-89
2022/11/04 12:07:43;;;;;;;;;;;;;;;5.95;100.00;98653.53;4935494;29;20378;-90
2022/11/04 12:10:17;;;;;;;;;;;;;;;6.06;100.00;98650.47;4936728;29;19930;-89
2022/11/04 12:12:49;;;;;;;;;;;;;;;6.08;100.00;98639.88;4936412;29;19997;-89
2022/11/04 12:15:16;;;;;;;;;;;;;;;6.15;100.00;98643.97;4933496;29;19934;-90
2022/11/04 12:18:02;;;;;;;;;;;;;;;6.22;100.00;98640.16;4930980;29;19923;-91
2022/11/04 12:30:12;;;;;;;;;;;;;;;6.29;100.00;98644.22;4892887;29;19973;-90
2022/11/04 12:32:55;;;;;;;;;;;;;;;6.26;100.00;98651.41;4913419;29;19930;-90
2022/11/04 12:35:56;;;;;;;;;;;;;;;6.26;100.00;98646.16;4951305;28;19929;-91
2022/11/04 12:44:52;;;;;;;;;;;;;;;6.36;100.00;98642.19;4942607;29;20287;-91
2022/11/04 12:50:27;;;;;;;;;;;;;;;6.34;100.00;98634.34;5086520;23;19972;-87
2022/11/04 12:53:05;;;;;;;;;;;;;;;6.28;100.00;98631.16;4992870;28;19969;-90
2022/11/04 12:55:33;;;;;;;;;;;;;;;6.37;100.00;98636.00;4992881;28;19918;-89
2022/11/04 12:58:09;;;;;;;;;;;;;;;6.31;100.00;98639.75;4991605;28;19918;-90
2022/11/04 13:00:37;;;;;;;;;;;;;;;6.31;100.00;98646.81;4990684;28;20373;-89
2022/11/04 13:03:28;;;;;;;;;;;;;;;6.33;100.00;98640.56;4991294;28;19918;-91
2022/11/04 13:06:00;;;;;;;;;;;;;;;6.32;100.00;98640.63;4991098;28;20404;-88
2022/11/04 13:08:44;;;;;;;;;;;;;;;6.32;100.00;98640.63;4993241;28;19922;-89
2022/11/04 13:11:25;;;;;;;;;;;;;;;6.35;100.00;98645.72;4990915;28;20004;-87
2022/11/04 13:14:19;;;;;;;;;;;;;;;6.35;100.00;98645.72;4973915;28;19922;-86
2022/11/04 13:16:46;;;;;;;;;;;;;;;6.43;100.00;98650.66;4991226;28;20281;-86
2022/11/04 13:19:32;;;;;;;;;;;;;;;6.36;100.00;98652.72;4992717;28;19917;-86
2022/11/04 13:22:00;;;;;;;;;;;;;;;6.38;100.00;98661.38;4990497;28;19925;-87
2022/11/04 13:24:30;;;;;;;;;;;;;;;6.44;100.00;98657.63;4992306;28;19917;-86
2022/11/04 13:27:02;;;;;;;;;;;;;;;6.43;100.00;98656.78;4972836;28;19922;-89
2022/11/04 13:29:28;;;;;;;;;;;;;;;6.41;100.00;98652.50;4972067;28;20373;-87
2022/11/04 13:32:09;;;;;;;;;;;;;;;6.35;100.00;98651.88;4975495;28;19973;-90
2022/11/04 13:34:38;;;;;;;;;;;;;;;6.54;100.00;98656.31;4992771;28;20477;-89
2022/11/04 13:37:24;;;;;;;;;;;;;;;6.41;100.00;98655.16;4992590;28;20336;-91
2022/11/04 13:40:14;;;;;;;;;;;;;;;6.40;100.00;98663.94;4990559;28;19930;-93
2022/11/04 13:42:39;;;;;;;;;;;;;;;6.32;100.00;98667.78;4993690;28;19925;-89
2022/11/04 13:45:12;;;;;;;;;;;;;;;6.34;100.00;98670.34;4990549;28;19918;-87
2022/11/04 13:47:44;;;;;;;;;;;;;;;6.40;100.00;98675.34;4993971;28;20282;-87
2022/11/04 13:50:28;;;;;;;;;;;;;;;6.35;100.00;98678.19;4992319;28;19933;-87
2022/11/04 13:52:54;;;;;;;;;;;;;;;6.32;100.00;98682.72;4988876;28;19992;-87
2022/11/04 13:55:22;;;;;;;;;;;;;;;6.31;100.00;98683.63;4992135;28;19918;-88
2022/11/04 13:57:54;;;;;;;;;;;;;;;6.36;100.00;98684.28;4992456;28;19918;-87
2022/11/04 14:00:24;;;;;;;;;;;;;;;6.35;100.00;98680.81;4990176;28;19953;-86
2022/11/04 14:02:53;;;;;;;;;;;;;;;6.35;100.00;98688.69;4993447;28;19918;-87
2022/11/04 14:05:33;;;;;;;;;;;;;;;6.39;100.00;98699.94;4993348;28;19937;-87
2022/11/04 14:08:01;;;;;;;;;;;;;;;6.40;100.00;98701.66;4990684;28;20022;-87
2022/11/04 14:10:41;;;;;;;;;;;;;;;6.41;100.00;98708.63;4991362;28;20024;-87
2022/11/04 14:13:25;;;;;;;;;;;;;;;6.49;100.00;98711.78;4992025;28;20313;-87
2022/11/04 14:16:10;;;;;;;;;;;;;;;6.40;100.00;98711.31;4992789;28;19930;-86
2022/11/04 14:18:36;;;;;;;;;;;;;;;6.45;100.00;98714.63;4996959;28;19918;-86
2022/11/04 14:21:04;;;;;;;;;;;;;;;6.39;100.00;98722.78;4996787;28;19918;-88
2022/11/04 14:23:30;;;;;;;;;;;;;;;6.40;100.00;98727.09;4994155;28;19924;-87
2022/11/04 14:26:03;;;;;;;;;;;;;;;6.39;100.00;98720.16;4995656;28;19929;-87
2022/11/04 14:28:30;;;;;;;;;;;;;;;6.45;100.00;98727.78;4992972;28;19918;-88
2022/11/04 14:31:00;;;;;;;;;;;;;;;6.40;100.00;98732.34;4995128;28;20017;-86
2022/11/04 14:33:28;;;;;;;;;;;;;;;6.35;100.00;98733.44;4995859;28;20377;-89
2022/11/04 14:35:55;;;;;;;;;;;;;;;6.41;100.00;98741.97;4993983;28;19926;-88
2022/11/04 14:38:26;;;;;;;;;;;;;;;6.35;100.00;98741.31;4996504;28;19965;-89
2022/11/04 14:41:09;;;;;;;;;;;;;;;6.41;100.00;98745.44;4994189;28;19928;-88
2022/11/04 14:43:40;;;;;;;;;;;;;;;6.41;100.00;98755.13;4988736;28;19936;-89
2022/11/04 14:46:11;;;;;;;;;;;;;;;6.41;100.00;98761.25;4995222;28;19965;-91
2022/11/04 14:51:04;;;;;;;;;;;;;;;6.43;100.00;98775.22;4974720;28;20289;-91
2022/11/04 14:53:31;;;;;;;;;;;;;;;6.47;100.00;98766.25;4991248;28;19933;-89
2022/11/04 14:56:12;;;;;;;;;;;;;;;6.47;100.00;98773.28;4975723;28;20006;-88
2022/11/04 14:59:00;;;;;;;;;;;;;;;6.48;100.00;98772.38;4973290;28;20567;-91
2022/11/04 15:01:28;;;;;;;;;;;;;;;6.40;100.00;98787.63;4967971;28;19922;-86
2022/11/04 15:03:54;;;;;;;;;;;;;;;6.38;100.00;98789.47;4975811;28;19926;-86
2022/11/04 15:06:28;;;;;;;;;;;;;;;6.40;100.00;98791.13;4973972;28;19927;-90
2022/11/04 15:08:54;;;;;;;;;;;;;;;6.49;100.00;98795.13;4967371;28;19929;-87
2022/11/04 15:14:16;;;;;;;;;;;;;;;6.55;100.00;98803.63;4974617;28;19976;-90
2022/11/04 15:16:43;;;;;;;;;;;;;;;6.50;100.00;98797.69;4974746;28;19925;-87
2022/11/04 15:19:09;;;;;;;;;;;;;;;6.52;100.00;98803.75;4974681;28;19925;-89
2022/11/04 15:21:46;;;;;;;;;;;;;;;6.47;100.00;98794.34;4974405;28;19925;-90
2022/11/04 15:24:16;;;;;;;;;;;;;;;6.47;100.00;98811.00;4970510;28;19922;-90
2022/11/04 15:26:42;;;;;;;;;;;;;;;6.55;100.00;98821.19;4975248;28;19929;-89
2022/11/04 15:29:10;;;;;;;;;;;;;;;6.49;100.00;98821.44;4968806;28;19931;-86
2022/11/04 15:31:36;;;;;;;;;;;;;;;6.48;100.00;98820.59;4962255;28;19922;-87
2022/11/04 15:34:03;;;;;;;;;;;;;;;6.50;100.00;98828.44;4974880;28;19954;-89
2022/11/04 15:36:30;;;;;;;;;;;;;;;6.49;100.00;98829.34;4971590;28;20334;-89
2022/11/04 15:39:01;;;;;;;;;;;;;;;6.49;100.00;98827.59;4973564;28;19930;-89
2022/11/04 15:44:18;;;;;;;;;;;;;;;6.52;100.00;98839.75;4975123;28;19941;-86
2022/11/04 15:46:47;;;;;;;;;;;;;;;6.52;100.00;98847.66;4974926;28;19922;-87
2022/11/04 15:49:18;;;;;;;;;;;;;;;6.48;100.00;98859.25;4975493;28;20052;-87
2022/11/04 15:51:43;;;;;;;;;;;;;;;6.47;100.00;98860.16;4974653;28;19930;-88
2022/11/04 15:54:20;;;;;;;;;;;;;;;6.46;100.00;98868.94;4975052;28;20420;-85
2022/11/04 15:56:51;;;;;;;;;;;;;;;6.49;100.00;98867.06;4974367;28;19926;-85
2022/11/04 15:59:31;;;;;;;;;;;;;;;6.51;100.00;98872.25;4972218;28;19922;-86
2022/11/04 16:01:56;;;;;;;;;;;;;;;6.51;100.00;98869.59;4974727;28;19922;-85
2022/11/04 16:04:23;;;;;;;;;;;;;;;6.48;100.00;98877.66;4974098;28;19925;-89
2022/11/04 16:07:18;;;;;;;;;;;;;;;6.51;100.00;98873.13;4974376;28;19922;-88
2022/11/04 16:09:45;;;;;;;;;;;;;;;6.53;100.00;98886.22;4981695;23;19933;-90
2022/11/04 16:12:10;;;;;;;;;;;;;;;6.55;100.00;98892.25;4958224;28;19925;-87
2022/11/04 16:14:36;;;;;;;;;;;;;;;6.51;100.00;98891.53;4973321;28;19922;-87
2022/11/04 16:17:02;;;;;;;;;;;;;;;6.46;100.00;98895.25;4972327;28;19922;-87
2022/11/04 16:19:28;;;;;;;;;;;;;;;6.44;100.00;98897.09;4973478;28;19998;-87
2022/11/04 16:22:09;;;;;;;;;;;;;;;6.44;100.00;98897.09;4973496;28;19922;-88
2022/11/04 16:24:36;;;;;;;;;;;;;;;6.45;100.00;98901.47;4975109;28;19918;-87
2022/11/04 16:27:02;;;;;;;;;;;;;;;6.40;100.00;98911.28;4974628;28;19921;-88
2022/11/04 16:29:32;;;;;;;;;;;;;;;6.45;100.00;98909.34;4970032;28;19926;-91
2022/11/04 16:32:08;;;;;;;;;;;;;;;6.44;100.00;98926.06;4970627;28;19927;-91
2022/11/04 16:34:36;;;;;;;;;;;;;;;6.40;100.00;98922.69;4955728;29;19918;-94
2022/11/04 16:37:04;;;;;;;;;;;;;;;6.45;100.00;98922.53;4954942;28;19929;-90
2022/11/04 16:39:29;;;;;;;;;;;;;;;6.48;100.00;98927.66;4971512;28;19932;-87
2022/11/04 16:41:55;;;;;;;;;;;;;;;6.47;100.00;98925.94;4977247;28;20004;-86
2022/11/04 16:44:22;;;;;;;;;;;;;;;6.43;100.00;98921.69;4992802;28;20012;-90
2022/11/04 16:46:47;;;;;;;;;;;;;;;6.45;100.00;98936.53;4994124;28;20424;-88
2022/11/04 16:49:51;;;;;;;;;;;;;;;6.45;100.00;98940.94;4993986;28;20024;-91
2022/11/04 16:52:43;;;;;;;;;;;;;;;6.41;100.00;98934.06;4957214;28;19961;-90
2022/11/04 16:55:14;;;;;;;;;;;;;;;6.48;100.00;98941.66;4994019;28;20472;-92
2022/11/04 16:57:52;;;;;;;;;;;;;;;6.45;100.00;98947.06;4993783;28;19921;-90
2022/11/04 17:00:33;;;;;;;;;;;;;;;6.47;100.00;98949.63;4975201;28;19918;-91
2022/11/04 17:03:24;;;;;;;;;;;;;;;6.46;100.00;98955.78;4993958;28;19918;-91
2022/11/04 17:09:08;;;;;;;;;;;;;;;6.46;100.00;98948.78;4979724;28;20005;-92
2022/11/04 17:11:41;;;;;;;;;;;;;;;6.32;100.00;98959.84;5246776;23;20358;-92
2022/11/04 17:14:06;;;;;;;;;;;;;;;6.36;100.00;98964.03;4971863;28;19937;-86
2022/11/04 17:16:31;;;;;;;;;;;;;;;6.36;100.00;98971.09;4973045;28;19918;-84
2022/11/04 17:19:09;;;;;;;;;;;;;;;;;;;;;
2022/11/04 17:21:42;;;;;;;;;;;;;;;6.38;100.00;98971.03;4974106;28;19918;-91
2022/11/04 17:24:08;;;;;;;;;;;;;;;6.39;100.00;98980.66;4973106;28;20346;-92
2022/11/04 17:26:35;;;;;;;;;;;;;;;6.34;100.00;98984.28;4973133;28;20017;-88
2022/11/04 17:29:01;;;;;;;;;;;;;;;6.28;100.00;98984.53;4973309;28;19918;-90
2022/11/04 17:31:27;;;;;;;;;;;;;;;6.36;100.00;98990.34;4974154;28;19928;-88
2022/11/04 17:33:52;;;;;;;;;;;;;;;6.34;100.00;98997.47;5012034;23;19969;-87
2022/11/04 17:36:18;;;;;;;;;;;;;;;6.32;100.00;98998.44;4993767;28;19918;-88
2022/11/04 17:38:43;;;;;;;;;;;;;;;6.37;100.00;99001.75;4993863;28;19922;-89
2022/11/04 17:43:58;;;;;;;;;;;;;;;6.33;100.00;99019.44;4992596;28;19925;-87
2022/11/04 17:46:33;;;;;;;;;;;;;;;6.36;100.00;99019.28;4993441;28;19956;-86
2022/11/04 17:48:58;;;;;;;;;;;;;;;6.40;100.00;99027.06;4993482;28;19999;-87
2022/11/04 17:51:24;;;;;;;;;;;;;;;6.31;100.00;99018.63;4979258;28;20016;-87
2022/11/04 17:57:01;;;;;;;;;;;;;;;6.36;100.00;99035.09;5018226;23;19992;-87
2022/11/04 17:59:27;;;;;;;;;;;;;;;6.34;100.00;99034.28;4968452;28;19922;-89
2022/11/04 18:01:52;;;;;;;;;;;;;;;6.35;100.00;99041.28;4984252;28;19922;-85
2022/11/04 18:04:19;;;;;;;;;;;;;;;6.33;100.00;99040.50;4979443;28;19925;-89
2022/11/04 18:06:44;;;;;;;;;;;;;;;6.36;100.00;99048.25;4979626;28;19972;-89
2022/11/04 18:09:10;;;;;;;;;;;;;;;6.36;100.00;99050.88;4997065;28;19918;-87
2022/11/04 18:14:22;;;;;;;;;;;;;;;6.29;100.00;99054.66;4995629;28;19972;-90
2022/11/04 18:16:57;;;;;;;;;;;;;;;6.25;100.00;99060.94;4995207;28;20348;-89
2022/11/04 18:22:06;;;;;;;;;;;;;;;6.35;100.00;99064.97;5031448;23;19926;-88
2022/11/04 18:24:32;;;;;;;;;;;;;;;6.24;100.00;99061.00;4958557;28;19922;-87
2022/11/04 18:26:59;;;;;;;;;;;;;;;6.26;100.00;99067.94;4977575;28;19923;-91
2022/11/04 18:29:38;;;;;;;;;;;;;;;6.23;100.00;99075.94;4957894;28;20363;-92
2022/11/04 18:32:03;;;;;;;;;;;;;;;6.29;100.00;99075.72;4958717;28;19922;-87
2022/11/04 18:34:29;;;;;;;;;;;;;;;6.34;100.00;99075.53;4974738;28;19922;-87
2022/11/04 18:36:55;;;;;;;;;;;;;;;6.23;100.00;99078.56;4977313;28;19922;-87
2022/11/04 18:39:42;;;;;;;;;;;;;;;6.29;100.00;99074.88;4976278;28;19973;-93
2022/11/04 18:42:40;;;;;;;;;;;;;;;6.22;100.00;99087.34;4956304;28;19953;-95
2022/11/04 18:45:08;;;;;;;;;;;;;;;6.25;100.00;99087.25;4973877;28;19969;-92
2022/11/04 18:47:33;;;;;;;;;;;;;;;6.26;100.00;99094.25;5040694;23;19976;-89
2022/11/04 18:49:58;;;;;;;;;;;;;;;6.29;100.00;99094.13;4958584;28;20350;-93
2022/11/04 18:52:24;;;;;;;;;;;;;;;6.20;100.00;99104.97;4959402;28;19926;-88
2022/11/04 18:54:49;;;;;;;;;;;;;;;6.20;100.00;99107.63;4975851;28;19925;-87
2022/11/04 18:57:14;;;;;;;;;;;;;;;6.20;100.00;99107.63;4975998;28;20386;-90
2022/11/04 18:59:40;;;;;;;;;;;;;;;6.18;100.00;99106.81;4975659;28;19918;-89
2022/11/04 19:02:05;;;;;;;;;;;;;;;6.16;100.00;99108.66;4976788;28;19918;-90
2022/11/04 19:04:30;;;;;;;;;;;;;;;6.14;100.00;99107.81;4976548;28;20329;-88
2022/11/04 19:06:55;;;;;;;;;;;;;;;6.20;100.00;99106.75;5022738;23;20259;-88
2022/11/04 19:09:28;;;;;;;;;;;;;;;6.14;100.00;99113.97;4992941;28;19928;-93
2022/11/04 19:14:56;;;;;;;;;;;;;;;6.20;100.00;99123.41;4976222;28;19945;-90
2022/11/04 19:17:41;;;;;;;;;;;;;;;6.21;100.00;99122.50;4959027;28;20377;-91
2022/11/04 19:20:12;;;;;;;;;;;;;;;6.21;100.00;99114.59;4981913;28;20312;-90
2022/11/04 19:22:38;;;;;;;;;;;;;;;6.22;100.00;99113.66;4983753;23;20294;-88
2022/11/04 19:25:21;;;;;;;;;;;;;;;6.22;100.00;99118.06;4978118;28;19925;-92
2022/11/04 19:27:50;;;;;;;;;;;;;;;6.18;100.00;99122.59;4977433;28;19972;-89
2022/11/04 19:30:17;;;;;;;;;;;;;;;6.22;100.00;99129.44;4974894;28;19928;-88
2022/11/04 19:32:49;;;;;;;;;;;;;;;6.23;100.00;99131.19;4979068;28;19929;-93
2022/11/04 19:38:08;;;;;;;;;;;;;;;6.24;100.00;99132.91;5022753;23;20000;-88
2022/11/04 19:40:42;;;;;;;;;;;;;;;6.21;100.00;99146.16;4957668;28;19972;-92
2022/11/04 19:43:08;;;;;;;;;;;;;;;6.17;100.00;99152.44;4958446;28;19918;-88
2022/11/04 19:45:33;;;;;;;;;;;;;;;6.23;100.00;99156.63;4957917;28;19925;-85
2022/11/04 19:47:58;;;;;;;;;;;;;;;6.15;100.00;99160.38;4984862;23;20350;-89
2022/11/04 19:50:26;;;;;;;;;;;;;;;6.24;100.00;99168.84;5192257;23;20056;-94
2022/11/04 19:53:20;;;;;;;;;;;;;;;6.17;100.00;99166.47;4975892;28;19925;-91
2022/11/04 19:55:49;;;;;;;;;;;;;;;6.16;100.00;99171.78;4914709;29;19922;-87
2022/11/04 19:58:14;;;;;;;;;;;;;;;6.18;100.00;99172.59;4953256;28;20076;-90
2022/11/04 20:00:39;;;;;;;;;;;;;;;6.21;100.00;99177.75;4956389;28;20012;-87
2022/11/04 20:03:05;;;;;;;;;;;;;;;6.29;100.00;99180.09;4974888;28;20031;-93
2022/11/04 20:05:34;;;;;;;;;;;;;;;6.16;100.00;99190.19;4957671;28;19924;-86
2022/11/04 20:08:00;;;;;;;;;;;;;;;6.20;100.00;99190.94;4956981;28;19926;-88
2022/11/04 20:10:25;;;;;;;;;;;;;;;7.17;100.00;99184.78;4989745;28;20024;-85
2022/11/04 20:15:47;;;;;;;;;;;;;;;6.99;100.00;99192.47;4961937;28;19923;-88
2022/11/04 20:18:12;;;;;;;;;;;;;;;6.68;100.00;99200.66;4973716;28;19929;-88
2022/11/04 20:20:45;;;;;;;;;;;;;;;6.52;100.00;99195.91;4984917;23;19929;-88
2022/11/04 20:23:30;;;;;;;;;;;;;;;6.47;100.00;99207.53;4982941;28;20424;-89
2022/11/04 20:26:21;;;;;;;;;;;;;;;;;;;;;
2022/11/04 20:28:47;;;;;;;;;;;;;;;6.67;100.00;99214.72;4992754;28;20361;-87
2022/11/04 20:31:39;;;;;;;;;;;;;;;6.49;100.00;99222.38;4992737;28;20005;-87
2022/11/04 20:34:16;;;;;;;;;;;;;;;6.38;100.00;99223.66;4994215;28;19928;-93
2022/11/04 20:36:41;;;;;;;;;;;;;;;6.32;100.00;99230.84;4974302;28;19938;-86
2022/11/04 20:39:09;;;;;;;;;;;;;;;6.31;100.00;99229.13;4992840;28;19921;-85
2022/11/04 20:41:39;;;;;;;;;;;;;;;6.26;100.00;99238.94;4975698;28;19972;-87
2022/11/04 20:44:08;;;;;;;;;;;;;;;6.25;100.00;99239.84;4990420;23;19933;-88
2022/11/04 20:46:34;;;;;;;;;;;;;;;6.23;100.00;99240.84;4956702;28;20012;-85
2022/11/04 20:49:05;;;;;;;;;;;;;;;6.20;100.00;99247.03;4952353;28;19949;-87
2022/11/04 20:51:34;;;;;;;;;;;;;;;6.19;100.00;99255.88;4954572;28;19929;-86
2022/11/04 20:54:05;;;;;;;;;;;;;;;6.19;100.00;99255.88;4956357;28;20381;-85
2022/11/04 20:58:55;;;;;;;;;;;;;;;6.20;100.00;99249.66;4997739;23;19980;-87
2022/11/04 21:01:25;;;;;;;;;;;;;;;6.16;100.00;99261.22;4976376;28;20379;-88
2022/11/04 21:04:25;;;;;;;;;;;;;;;6.15;100.00;99270.88;4992294;28;19969;-90
2022/11/04 21:06:51;;;;;;;;;;;;;;;6.14;100.00;99277.06;4970803;28;20321;-86
2022/11/04 21:09:17;;;;;;;;;;;;;;;6.12;100.00;99275.38;5033444;23;19998;-86
2022/11/04 21:11:45;;;;;;;;;;;;;;;6.18;100.00;99288.34;4974944;28;19933;-87
2022/11/04 21:14:11;;;;;;;;;;;;;;;6.11;100.00;99295.56;4975436;28;19968;-86
2022/11/04 21:16:42;;;;;;;;;;;;;;;6.15;100.00;99291.06;4976379;28;19941;-86